Time;durP1;ratioP1;P1;durP2;ratioP2;P2;SDS_P1;SDS_P2;PMS_P1;PMS_P2;Temp;Humidity;BMP_temperature;BMP_pressure;BME280_temperature;BME280_humidity;BME280_pressure;Samples;Min_cycle;Max_cycle;Signal;HPM_P1;HPM_P2
2022/04/03 00:00:49;;;;;;;6.95;3.88;;;0.30;99.90;;;;;;5097538;27;20066;-87
2022/04/03 00:03:15;;;;;;;6.78;3.72;;;0.70;99.90;;;;;;5108324;27;20039;-86
2022/04/03 00:05:43;;;;;;;6.32;3.83;;;0.30;99.90;;;;;;5103665;28;20383;-86
2022/04/03 00:08:12;;;;;;;5.80;3.63;;;0.40;99.90;;;;;;5090189;28;20048;-86
2022/04/03 00:10:39;;;;;;;7.35;3.67;;;1.10;99.90;;;;;;5091018;27;20816;-86
2022/04/03 00:13:06;;;;;;;9.20;3.78;;;1.40;99.90;;;;;;5092503;28;20042;-86
2022/04/03 00:15:32;;;;;;;5.97;3.55;;;0.50;99.90;;;;;;5084401;28;20040;-86
2022/04/03 00:17:58;;;;;;;9.00;3.95;;;1.40;99.90;;;;;;5087068;28;20050;-86
2022/04/03 00:20:24;;;;;;;9.88;3.72;;;0.50;99.90;;;;;;5096022;28;20142;-86
2022/04/03 00:22:52;;;;;;;7.75;3.88;;;0.50;99.90;;;;;;5091937;28;20032;-86
2022/04/03 00:25:18;;;;;;;5.95;3.60;;;1.40;99.90;;;;;;5087267;28;20059;-86
2022/04/03 00:27:45;;;;;;;7.20;3.50;;;0.60;99.90;;;;;;5091968;28;20176;-86
2022/04/03 00:30:12;;;;;;;5.35;3.28;;;0.60;99.90;;;;;;5090767;28;20085;-86
2022/04/03 00:32:38;;;;;;;8.50;3.55;;;0.60;99.90;;;;;;5107862;27;20070;-86
2022/04/03 00:35:05;;;;;;;8.35;3.20;;;0.70;99.90;;;;;;5090099;28;20040;-86
2022/04/03 00:37:31;;;;;;;8.23;3.67;;;0.60;99.90;;;;;;5109478;27;20399;-86
2022/04/03 00:39:57;;;;;;;6.95;3.63;;;0.60;99.90;;;;;;5090591;27;20054;-86
2022/04/03 00:42:24;;;;;;;5.82;3.72;;;0.60;99.90;;;;;;5090960;27;20039;-86
2022/04/03 00:44:49;;;;;;;9.23;3.40;;;1.40;99.90;;;;;;5108503;27;20458;-87
2022/04/03 00:47:17;;;;;;;5.00;3.53;;;1.50;99.90;;;;;;5124897;27;20054;-86
2022/04/03 00:49:43;;;;;;;9.25;3.63;;;1.60;99.90;;;;;;5105152;27;20050;-86
2022/04/03 00:52:08;;;;;;;6.93;3.35;;;1.60;99.90;;;;;;5106386;28;20386;-86
2022/04/03 00:54:35;;;;;;;5.22;3.20;;;0.50;99.90;;;;;;5087753;28;20047;-86
2022/04/03 00:57:05;;;;;;;6.15;2.80;;;0.50;99.90;;;;;;5083537;28;20043;-86
2022/04/03 00:59:31;;;;;;;7.75;3.65;;;0.40;99.90;;;;;;5124290;27;20042;-86
2022/04/03 01:01:56;;;;;;;10.05;3.38;;;1.00;99.90;;;;;;5094666;27;20043;-86
2022/04/03 01:04:25;;;;;;;5.50;3.30;;;1.30;99.90;;;;;;5096120;27;20043;-86
2022/04/03 01:06:51;;;;;;;8.48;3.50;;;1.30;99.90;;;;;;5091909;28;20468;-86
2022/04/03 01:09:16;;;;;;;10.90;3.05;;;0.90;99.90;;;;;;5096726;28;20036;-86
2022/04/03 01:11:44;;;;;;;8.48;3.40;;;0.30;99.90;;;;;;5127663;27;20407;-86
2022/04/03 01:14:10;;;;;;;9.65;3.58;;;0.30;99.90;;;;;;5097545;28;20053;-87
2022/04/03 01:16:36;;;;;;;8.82;3.03;;;1.40;99.90;;;;;;5099102;27;20445;-86
2022/04/03 01:19:03;;;;;;;6.28;3.20;;;0.20;99.90;;;;;;5105388;27;20062;-85
2022/04/03 01:21:29;;;;;;;11.45;3.35;;;0.20;99.90;;;;;;5096493;27;20380;-86
2022/04/03 01:23:55;;;;;;;5.72;3.13;;;1.30;99.90;;;;;;5098654;27;20084;-86
2022/04/03 01:26:26;;;;;;;5.53;3.20;;;0.20;99.90;;;;;;5097424;27;20039;-86
2022/04/03 01:28:52;;;;;;;5.38;3.00;;;0.20;99.90;;;;;;5103480;28;20055;-87
2022/04/03 01:31:18;;;;;;;5.57;2.95;;;0.00;99.90;;;;;;5112561;27;20059;-87
2022/04/03 01:33:44;;;;;;;9.23;3.03;;;0.80;99.90;;;;;;5116770;27;20073;-85
2022/04/03 01:36:09;;;;;;;5.72;2.95;;;0.00;99.90;;;;;;5112888;27;20066;-86
2022/04/03 01:38:35;;;;;;;6.15;3.20;;;1.00;99.90;;;;;;5096211;27;20137;-86
2022/04/03 01:41:03;;;;;;;5.57;3.30;;;0.10;99.90;;;;;;5097557;27;20062;-86
2022/04/03 01:43:29;;;;;;;6.35;3.53;;;0.80;99.90;;;;;;5111132;27;20062;-86
2022/04/03 01:45:55;;;;;;;5.45;3.20;;;1.20;99.90;;;;;;5097569;27;20490;-87
2022/04/03 01:48:20;;;;;;;8.45;3.10;;;0.10;99.90;;;;;;5096019;27;20096;-87
2022/04/03 01:50:46;;;;;;;8.90;3.60;;;0.00;99.90;;;;;;5112784;27;20035;-87
2022/04/03 01:53:12;;;;;;;7.20;3.72;;;-0.10;99.90;;;;;;5095364;27;20762;-86
2022/04/03 01:55:38;;;;;;;9.45;4.03;;;0.10;99.90;;;;;;5100114;27;20078;-86
2022/04/03 01:58:08;;;;;;;13.88;4.00;;;0.20;99.90;;;;;;5116874;27;20114;-87
2022/04/03 02:00:34;;;;;;;9.05;4.18;;;0.00;99.90;;;;;;5095126;27;20046;-86
2022/04/03 02:03:00;;;;;;;6.25;3.50;;;0.30;99.90;;;;;;5132326;27;20047;-86
2022/04/03 02:05:25;;;;;;;7.75;3.67;;;0.30;99.90;;;;;;5116094;27;20053;-85
2022/04/03 02:07:51;;;;;;;9.65;3.80;;;0.20;99.90;;;;;;5099299;27;20118;-86
2022/04/03 02:10:17;;;;;;;6.53;4.10;;;1.30;99.90;;;;;;5113926;27;20398;-86
2022/04/03 02:12:43;;;;;;;7.22;3.80;;;0.80;99.90;;;;;;5115123;27;20115;-86
2022/04/03 02:15:11;;;;;;;9.18;3.60;;;0.60;99.90;;;;;;5113774;27;20046;-86
2022/04/03 02:17:40;;;;;;;6.32;3.42;;;0.30;99.90;;;;;;5085390;27;20342;-86
2022/04/03 02:20:09;;;;;;;6.97;3.90;;;0.30;99.90;;;;;;5098297;27;20039;-86
2022/04/03 02:22:35;;;;;;;8.70;4.35;;;0.30;99.90;;;;;;5113824;27;20054;-86
2022/04/03 02:25:00;;;;;;;6.80;3.78;;;0.40;99.90;;;;;;5115983;27;20386;-85
2022/04/03 02:27:26;;;;;;;8.38;3.85;;;1.30;99.90;;;;;;5106398;27;20142;-86
2022/04/03 02:29:52;;;;;;;4.60;3.47;;;0.40;99.90;;;;;;5107323;27;20111;-86
2022/04/03 02:32:17;;;;;;;8.07;3.40;;;1.20;99.90;;;;;;5095951;27;20096;-86
2022/04/03 02:34:43;;;;;;;7.70;3.78;;;1.50;99.90;;;;;;5095656;27;20043;-86
2022/04/03 02:37:09;;;;;;;7.30;3.80;;;1.40;99.90;;;;;;5095730;27;20095;-87
2022/04/03 02:39:34;;;;;;;9.38;4.13;;;0.80;99.90;;;;;;5085215;28;20055;-86
2022/04/03 02:42:01;;;;;;;11.27;3.90;;;0.60;99.90;;;;;;5109874;28;20077;-86
2022/04/03 02:44:26;;;;;;;8.40;3.95;;;0.60;99.90;;;;;;5086740;28;20040;-87
2022/04/03 02:46:52;;;;;;;10.13;3.95;;;0.60;99.90;;;;;;5110992;27;20042;-86
2022/04/03 02:49:18;;;;;;;15.80;4.47;;;0.70;99.90;;;;;;5092283;28;20100;-87
2022/04/03 02:51:43;;;;;;;9.23;4.30;;;1.60;99.90;;;;;;5111488;27;20070;-87
2022/04/03 02:54:12;;;;;;;9.07;4.15;;;0.70;99.90;;;;;;5105114;27;20158;-84
2022/04/03 02:56:38;;;;;;;12.48;4.97;;;0.80;99.90;;;;;;5109122;27;20051;-85
2022/04/03 02:59:03;;;;;;;8.52;3.75;;;0.70;99.90;;;;;;5092367;27;20031;-86
2022/04/03 03:01:29;;;;;;;6.38;3.40;;;1.20;99.90;;;;;;5094133;28;20052;-85
2022/04/03 03:03:55;;;;;;;5.47;2.92;;;1.10;99.90;;;;;;5100671;27;20073;-85
2022/04/03 03:06:21;;;;;;;3.20;1.98;;;0.80;99.90;;;;;;5097062;27;20114;-86
2022/04/03 03:08:47;;;;;;;5.93;2.08;;;2.40;99.90;;;;;;5093759;28;20251;-85
2022/04/03 03:11:12;;;;;;;3.55;1.60;;;2.20;99.90;;;;;;5104666;27;20031;-85
2022/04/03 03:13:38;;;;;;;4.13;1.40;;;2.40;99.90;;;;;;5094473;27;20038;-86
2022/04/03 03:16:05;;;;;;;1.50;1.20;;;1.30;99.90;;;;;;5107782;28;20042;-85
2022/04/03 03:18:30;;;;;;;1.27;1.02;;;1.30;99.90;;;;;;5094441;27;20122;-86
2022/04/03 03:20:56;;;;;;;2.42;1.30;;;1.30;99.90;;;;;;5088747;27;20473;-87
2022/04/03 03:23:21;;;;;;;1.83;1.30;;;1.40;99.90;;;;;;5111972;27;20034;-87
2022/04/03 03:25:47;;;;;;;3.50;1.17;;;1.80;99.90;;;;;;5102014;28;20371;-87
2022/04/03 03:28:15;;;;;;;2.20;1.23;;;1.40;99.90;;;;;;5093701;28;20096;-88
2022/04/03 03:30:41;;;;;;;4.95;1.40;;;1.40;99.90;;;;;;5090588;27;20027;-87
2022/04/03 03:33:12;;;;;;;5.18;1.30;;;2.10;99.90;;;;;;5103198;27;20046;-88
2022/04/03 03:35:38;;;;;;;2.42;1.48;;;1.70;99.90;;;;;;5089047;28;20044;-87
2022/04/03 03:38:04;;;;;;;2.75;1.80;;;1.70;99.90;;;;;;5109125;27;20055;-87
2022/04/03 03:40:29;;;;;;;4.45;1.70;;;1.40;99.90;;;;;;5088220;28;20044;-87
2022/04/03 03:42:56;;;;;;;2.60;1.60;;;1.50;99.90;;;;;;5091092;28;20067;-84
2022/04/03 03:45:21;;;;;;;5.65;1.63;;;2.30;99.90;;;;;;5092791;28;20039;-86
2022/04/03 03:47:48;;;;;;;3.78;1.60;;;2.50;99.90;;;;;;5088205;28;20518;-86
2022/04/03 03:50:15;;;;;;;4.55;2.05;;;1.20;99.90;;;;;;5088657;27;20439;-85
2022/04/03 03:52:42;;;;;;;4.03;1.42;;;2.20;99.90;;;;;;5103406;27;20463;-84
2022/04/03 03:55:08;;;;;;;4.63;1.83;;;1.30;99.90;;;;;;5093215;28;20132;-85
2022/04/03 03:57:34;;;;;;;6.15;1.92;;;1.20;99.90;;;;;;5103896;27;20116;-84
2022/04/03 04:00:01;;;;;;;5.30;1.90;;;1.10;99.90;;;;;;5105058;28;20061;-89
2022/04/03 04:02:27;;;;;;;3.78;1.95;;;1.10;99.90;;;;;;5091211;28;20035;-88
2022/04/03 04:05:33;;;;;;;4.68;1.90;;;1.00;99.90;;;;;;5085783;28;20027;-88
2022/04/03 04:08:04;;;;;;;5.20;2.00;;;1.00;99.90;;;;;;5105169;28;20048;-91
2022/04/03 04:10:30;;;;;;;4.82;1.80;;;1.00;99.90;;;;;;5090726;28;20502;-91
2022/04/03 04:12:59;;;;;;;2.33;1.98;;;1.90;99.90;;;;;;5093485;28;20035;-89
2022/04/03 04:15:25;;;;;;;3.30;1.98;;;0.90;99.90;;;;;;5093822;28;20043;-88
2022/04/03 04:17:54;;;;;;;4.78;2.17;;;0.90;99.90;;;;;;5084743;28;20037;-87
2022/04/03 04:24:01;;;;;;;3.53;2.13;;;0.90;99.90;;;;;;5114427;28;22116;-87
2022/04/03 04:26:27;;;;;;;4.47;2.17;;;1.60;99.90;;;;;;5099821;27;20047;-87
2022/04/03 04:28:53;;;;;;;4.95;2.20;;;1.30;99.90;;;;;;5087170;28;20067;-85
2022/04/03 04:31:19;;;;;;;3.50;2.10;;;1.60;99.90;;;;;;5085948;28;20543;-85
2022/04/03 04:34:28;;;;;;;6.90;2.33;;;1.60;99.90;;;;;;5089933;28;20058;-88
2022/04/03 04:37:24;;;;;;;5.45;2.20;;;0.70;99.90;;;;;;5092812;28;20027;-89
2022/04/03 04:43:08;;;;;;;4.50;2.17;;;0.70;99.90;;;;;;5062626;28;20055;-90
2022/04/03 04:46:09;;;;;;;3.28;2.22;;;0.30;99.90;;;;;;5060274;28;20093;-88
2022/04/03 04:52:26;;;;;;;10.32;2.45;;;0.50;99.90;;;;;;5053879;28;20036;-89
2022/04/03 04:58:53;;;;;;;4.60;2.35;;;0.40;99.90;;;;;;5082966;28;20224;-86
2022/04/03 05:01:59;;;;;;;3.25;2.15;;;0.00;99.90;;;;;;5065542;28;20104;-83
2022/04/03 05:04:40;;;;;;;2.83;2.22;;;0.40;99.90;;;;;;5069822;28;20059;-86
2022/04/03 05:07:15;;;;;;;4.57;2.20;;;0.10;99.90;;;;;;5076724;28;20226;-86
2022/04/03 05:09:44;;;;;;;7.50;2.30;;;1.00;99.90;;;;;;5057963;28;20036;-82
2022/04/03 05:12:10;;;;;;;8.05;2.33;;;0.30;99.90;;;;;;5093964;28;20040;-84
2022/04/03 05:14:37;;;;;;;5.80;2.70;;;0.30;99.90;;;;;;5107589;28;20032;-84
2022/04/03 05:17:06;;;;;;;5.63;2.45;;;0.70;99.90;;;;;;5089911;28;20031;-83
2022/04/03 05:19:33;;;;;;;5.35;2.95;;;0.30;99.90;;;;;;5089996;28;20491;-83
2022/04/03 05:21:59;;;;;;;3.20;2.47;;;0.20;99.90;;;;;;5092711;28;22096;-83
2022/04/03 05:24:25;;;;;;;3.88;2.60;;;0.60;99.90;;;;;;5092735;28;20051;-84
2022/04/03 05:26:51;;;;;;;6.97;2.53;;;0.40;99.90;;;;;;5091281;28;21304;-84
2022/04/03 05:29:17;;;;;;;7.20;2.78;;;0.40;99.90;;;;;;5088018;28;20036;-84
2022/04/03 05:31:44;;;;;;;5.45;2.35;;;0.40;99.90;;;;;;5113585;28;20110;-83
2022/04/03 05:34:10;;;;;;;4.78;2.60;;;0.40;99.90;;;;;;5094227;28;20058;-84
2022/04/03 05:36:36;;;;;;;7.75;3.03;;;1.60;99.90;;;;;;5110194;28;20048;-84
2022/04/03 05:39:09;;;;;;;7.55;2.83;;;0.40;99.90;;;;;;5051081;28;1155694;-84
2022/04/03 05:41:38;;;;;;;4.30;2.70;;;1.00;99.90;;;;;;5111433;28;20043;-83
2022/04/03 05:44:07;;;;;;;6.63;2.53;;;0.70;99.90;;;;;;5111800;28;20127;-84
2022/04/03 05:46:33;;;;;;;3.92;2.25;;;1.00;99.90;;;;;;5096936;28;20050;-83
2022/04/03 05:48:59;;;;;;;7.03;2.70;;;1.10;99.90;;;;;;5095012;28;20027;-84
2022/04/03 05:51:25;;;;;;;5.00;2.47;;;0.50;99.90;;;;;;5095096;28;20035;-84
2022/04/03 05:53:51;;;;;;;13.32;2.72;;;1.40;99.90;;;;;;5108042;28;20043;-84
2022/04/03 05:56:17;;;;;;;5.78;2.22;;;1.40;99.90;;;;;;5095347;28;20699;-85
2022/04/03 05:58:43;;;;;;;5.43;2.63;;;0.50;99.90;;;;;;5115137;28;20034;-84
2022/04/03 06:01:09;;;;;;;7.30;2.85;;;1.80;99.90;;;;;;5113086;28;20106;-84
2022/04/03 06:03:35;;;;;;;10.02;2.53;;;0.80;99.90;;;;;;5092438;28;20574;-83
2022/04/03 06:06:01;;;;;;;5.47;2.90;;;0.70;99.90;;;;;;5089646;28;20264;-83
2022/04/03 06:08:27;;;;;;;7.68;2.50;;;1.10;99.90;;;;;;5089425;27;20046;-84
2022/04/03 06:10:52;;;;;;;5.30;2.40;;;2.10;99.90;;;;;;5097848;27;20027;-84
2022/04/03 06:13:18;;;;;;;6.88;2.20;;;2.20;99.90;;;;;;5113379;27;20524;-84
2022/04/03 06:15:48;;;;;;;6.63;2.25;;;1.60;99.90;;;;;;5095625;27;20051;-84
2022/04/03 06:18:15;;;;;;;6.07;2.33;;;1.90;99.90;;;;;;5096173;27;20733;-84
2022/04/03 06:20:42;;;;;;;4.50;2.42;;;2.40;99.90;;;;;;5096903;27;20496;-84
2022/04/03 06:23:19;;;;;;;3.88;2.30;;;1.50;99.90;;;;;;5102832;27;20070;-84
2022/04/03 06:25:46;;;;;;;6.57;2.38;;;1.50;99.90;;;;;;5116072;27;20035;-84
2022/04/03 06:28:13;;;;;;;8.05;2.50;;;1.80;99.90;;;;;;5095690;27;20517;-84
2022/04/03 06:30:38;;;;;;;5.53;2.72;;;1.60;99.90;;;;;;5095826;27;20036;-84
2022/04/03 06:33:05;;;;;;;3.95;2.88;;;2.60;99.90;;;;;;5095299;27;20042;-87
2022/04/03 06:35:30;;;;;;;6.03;3.15;;;2.40;99.90;;;;;;5098361;28;20526;-85
2022/04/03 06:37:56;;;;;;;7.00;3.88;;;1.60;99.90;;;;;;5100961;28;20039;-85
2022/04/03 06:40:23;;;;;;;5.53;2.50;;;1.70;99.90;;;;;;5115169;27;20047;-85
2022/04/03 06:42:50;;;;;;;4.43;2.55;;;2.20;99.90;;;;;;5095718;27;20451;-83
2022/04/03 06:45:16;;;;;;;4.47;2.00;;;1.70;99.90;;;;;;5116899;27;20040;-84
2022/04/03 06:47:42;;;;;;;4.38;1.75;;;1.70;99.90;;;;;;5093370;28;20131;-85
2022/04/03 06:50:12;;;;;;;6.30;2.50;;;1.80;99.90;;;;;;5111351;27;20125;-85
2022/04/03 06:52:38;;;;;;;5.85;1.80;;;1.80;99.90;;;;;;5115145;27;20491;-84
2022/04/03 06:55:05;;;;;;;7.15;2.03;;;2.70;99.90;;;;;;5092806;27;20168;-86
2022/04/03 06:57:31;;;;;;;7.68;1.80;;;2.10;99.90;;;;;;5111102;27;20047;-86
2022/04/03 06:59:57;;;;;;;3.67;1.58;;;2.20;99.90;;;;;;5114660;27;20423;-85
2022/04/03 07:03:13;;;;;;;5.20;1.77;;;2.40;99.90;;;;;;5098744;27;20074;-83
2022/04/03 07:05:38;;;;;;;4.18;1.38;;;2.00;99.90;;;;;;5014735;28;20049;-84
2022/04/03 07:08:20;;;;;;;6.07;1.58;;;2.70;99.90;;;;;;5015381;28;20070;-86
2022/04/03 07:10:46;;;;;;;5.30;1.40;;;3.30;99.90;;;;;;5014757;28;20489;-86
2022/04/03 07:13:12;;;;;;;6.53;1.70;;;2.90;99.90;;;;;;5031045;28;20040;-85
2022/04/03 07:15:38;;;;;;;6.45;1.67;;;3.00;99.90;;;;;;5013371;28;20079;-86
2022/04/03 07:18:03;;;;;;;5.78;1.60;;;3.10;99.90;;;;;;5030823;28;20895;-85
2022/04/03 07:20:32;;;;;;;2.80;1.38;;;3.30;99.90;;;;;;5013572;28;20068;-86
2022/04/03 07:22:58;;;;;;;4.35;1.60;;;3.20;99.90;;;;;;5015211;28;20471;-86
2022/04/03 07:25:23;;;;;;;6.57;1.90;;;4.40;99.90;;;;;;5015779;28;20577;-85
2022/04/03 07:27:50;;;;;;;2.95;1.42;;;3.20;99.90;;;;;;5016360;28;20073;-84
2022/04/03 07:30:16;;;;;;;4.53;1.05;;;4.00;99.90;;;;;;5015170;28;20052;-84
2022/04/03 07:32:41;;;;;;;4.80;0.95;;;4.20;99.90;;;;;;5014637;28;20052;-85
2022/04/03 07:35:08;;;;;;;3.50;0.73;;;5.30;99.90;;;;;;5044160;27;20058;-85
2022/04/03 07:37:34;;;;;;;3.95;0.60;;;4.30;99.90;;;;;;5093126;28;20050;-81
2022/04/03 07:40:03;;;;;;;3.25;0.80;;;4.20;99.90;;;;;;5109343;28;20044;-82
2022/04/03 07:42:30;;;;;;;5.22;0.70;;;4.20;99.90;;;;;;5093230;27;20107;-82
2022/04/03 07:44:55;;;;;;;4.28;0.90;;;4.30;99.90;;;;;;5095307;27;20705;-82
2022/04/03 07:47:21;;;;;;;2.45;0.80;;;5.30;99.90;;;;;;5093534;28;20035;-83
2022/04/03 07:49:47;;;;;;;4.93;0.63;;;4.90;99.90;;;;;;5076888;27;20114;-82
2022/04/03 07:52:13;;;;;;;2.17;0.60;;;4.50;99.90;;;;;;5095067;27;20039;-83
2022/04/03 07:54:38;;;;;;;3.60;0.80;;;4.50;99.90;;;;;;5096808;27;20061;-79
2022/04/03 07:57:06;;;;;;;4.10;0.73;;;5.50;99.90;;;;;;5109846;27;20483;-77
2022/04/03 07:59:32;;;;;;;1.98;0.90;;;4.60;99.90;;;;;;5113107;27;20098;-81
2022/04/03 08:02:01;;;;;;;6.38;1.00;;;4.70;99.90;;;;;;5114494;27;20044;-82
2022/04/03 08:04:27;;;;;;;3.30;1.05;;;4.90;99.90;;;;;;5110227;27;20131;-84
2022/04/03 08:06:53;;;;;;;2.83;0.70;;;5.20;99.90;;;;;;5096518;28;20122;-86
2022/04/03 08:09:26;;;;;;;3.65;0.95;;;5.30;99.90;;;;;;5112117;27;20482;-88
2022/04/03 08:11:52;;;;;;;3.47;0.95;;;5.10;99.90;;;;;;5096240;27;20063;-80
2022/04/03 08:14:22;;;;;;;6.97;1.20;;;6.00;99.90;;;;;;5110577;27;20126;-78
2022/04/03 08:16:50;;;;;;;5.97;1.20;;;5.20;99.90;;;;;;5111347;27;20110;-81
2022/04/03 08:19:16;;;;;;;4.68;1.00;;;5.20;99.90;;;;;;5109342;27;20479;-79
2022/04/03 08:21:42;;;;;;;6.80;0.98;;;5.30;99.90;;;;;;5111785;27;20079;-78
2022/04/03 08:24:08;;;;;;;8.95;1.25;;;5.50;99.90;;;;;;5092669;28;20035;-81
2022/04/03 08:26:34;;;;;;;4.82;1.10;;;5.50;99.90;;;;;;5110050;27;20043;-82
2022/04/03 08:28:59;;;;;;;1.60;0.85;;;5.50;99.90;;;;;;5097521;27;20440;-79
2022/04/03 08:31:27;;;;;;;8.50;1.08;;;5.60;99.90;;;;;;5115890;27;20042;-80
2022/04/03 08:33:53;;;;;;;7.93;1.35;;;5.70;99.90;;;;;;5100477;27;20114;-78
2022/04/03 08:36:19;;;;;;;8.45;1.52;;;5.70;99.90;;;;;;5094703;28;20182;-77
2022/04/03 08:38:46;;;;;;;3.72;1.05;;;5.80;99.90;;;;;;5109811;28;20051;-78
2022/04/03 08:41:12;;;;;;;5.45;1.00;;;6.00;99.90;;;;;;5108735;28;20047;-77
2022/04/03 08:43:40;;;;;;;7.32;1.20;;;6.10;99.90;;;;;;5110184;28;20419;-75
2022/04/03 08:46:09;;;;;;;3.63;1.10;;;6.30;99.90;;;;;;5109519;28;20051;-76
2022/04/03 08:48:42;;;;;;;4.50;1.20;;;6.50;99.90;;;;;;5091334;28;20048;-78
2022/04/03 08:51:08;;;;;;;2.53;0.80;;;6.60;99.90;;;;;;5091321;28;20031;-82
2022/04/03 08:53:35;;;;;;;2.70;0.70;;;6.50;99.90;;;;;;5107836;28;20059;-76
2022/04/03 08:56:01;;;;;;;3.60;0.80;;;6.60;99.90;;;;;;5099266;28;20046;-83
2022/04/03 08:58:26;;;;;;;5.78;1.13;;;6.40;99.90;;;;;;5109945;28;20047;-82
2022/04/03 09:00:52;;;;;;;7.75;1.20;;;6.50;99.90;;;;;;5095190;28;20043;-79
2022/04/03 09:03:18;;;;;;;4.85;0.98;;;6.60;99.90;;;;;;5108134;28;20100;-78
2022/04/03 09:05:44;;;;;;;5.13;0.90;;;6.70;99.90;;;;;;5094695;28;20027;-80
2022/04/03 09:08:10;;;;;;;2.35;0.85;;;6.80;99.90;;;;;;5091211;28;20040;-79
2022/04/03 09:10:37;;;;;;;3.50;0.75;;;7.00;99.90;;;;;;5114803;28;20102;-79
2022/04/03 09:13:03;;;;;;;3.47;0.73;;;7.10;99.90;;;;;;5114087;28;20430;-79
2022/04/03 09:15:30;;;;;;;6.18;1.10;;;7.00;99.90;;;;;;5096132;28;20039;-82
2022/04/03 09:18:00;;;;;;;6.07;0.93;;;6.90;99.90;;;;;;5111914;28;20603;-76
2022/04/03 09:20:30;;;;;;;3.70;0.63;;;6.90;99.90;;;;;;5111729;28;20054;-78
2022/04/03 09:23:00;;;;;;;6.20;1.20;;;6.80;99.90;;;;;;5106728;28;20071;-79
2022/04/03 09:25:35;;;;;;;4.25;0.70;;;7.10;99.90;;;;;;5083889;28;20051;-78
2022/04/03 09:28:04;;;;;;;6.18;0.70;;;7.20;99.90;;;;;;5087888;28;20059;-81
2022/04/03 09:30:31;;;;;;;3.63;0.80;;;7.30;99.90;;;;;;5092880;28;20054;-77
2022/04/03 09:32:58;;;;;;;5.82;0.90;;;7.10;99.90;;;;;;5105285;28;20112;-76
2022/04/03 09:35:27;;;;;;;5.22;0.90;;;7.00;99.90;;;;;;5103824;28;20039;-76
2022/04/03 09:38:10;;;;;;;3.30;0.80;;;7.10;99.90;;;;;;5088503;28;20150;-73
2022/04/03 09:40:42;;;;;;;4.43;0.65;;;7.20;99.90;;;;;;5107000;28;20545;-77
2022/04/03 09:43:24;;;;;;;4.53;0.60;;;7.30;99.90;;;;;;5105584;28;20040;-76
2022/04/03 09:46:01;;;;;;;2.10;0.75;;;7.10;99.90;;;;;;5105097;28;20040;-77
2022/04/03 09:48:29;;;;;;;5.68;0.68;;;6.90;99.90;;;;;;5086347;28;20039;-74
2022/04/03 09:50:59;;;;;;;1.48;0.47;;;6.90;99.90;;;;;;5112318;27;20143;-79
2022/04/03 09:53:27;;;;;;;5.97;0.80;;;7.10;99.90;;;;;;5107398;27;20055;-76
2022/04/03 09:55:53;;;;;;;4.60;0.80;;;7.20;99.90;;;;;;5107949;27;20055;-76
2022/04/03 09:58:19;;;;;;;1.50;0.40;;;7.40;99.90;;;;;;5111429;28;20039;-76
2022/04/03 10:00:45;;;;;;;1.95;0.65;;;7.10;99.90;;;;;;5109587;28;20039;-76
2022/04/03 10:03:12;;;;;;;1.60;0.60;;;7.10;99.90;;;;;;5111364;28;20086;-78
2022/04/03 10:05:39;;;;;;;2.17;0.60;;;7.10;99.90;;;;;;5094058;28;20047;-75
2022/04/03 10:08:06;;;;;;;2.20;0.80;;;7.30;99.90;;;;;;5110741;28;20027;-78
2022/04/03 10:10:33;;;;;;;1.45;0.68;;;7.30;99.90;;;;;;5094254;28;20032;-77
2022/04/03 10:12:59;;;;;;;2.03;0.50;;;7.30;99.90;;;;;;5111484;28;20122;-78
2022/04/03 10:15:26;;;;;;;4.80;0.80;;;7.20;99.90;;;;;;5094690;28;20066;-75
2022/04/03 10:17:53;;;;;;;3.00;0.73;;;7.30;99.90;;;;;;5094934;28;20039;-75
2022/04/03 10:20:19;;;;;;;3.05;0.70;;;7.50;99.90;;;;;;5092954;28;20101;-79
2022/04/03 10:22:57;;;;;;;3.50;0.80;;;7.90;99.90;;;;;;5110541;28;20460;-77
2022/04/03 10:25:29;;;;;;;6.63;0.90;;;7.90;99.90;;;;;;5090904;28;20478;-76
2022/04/03 10:28:03;;;;;;;3.53;0.70;;;8.00;99.90;;;;;;5108989;28;20036;-77
2022/04/03 10:30:43;;;;;;;2.65;0.70;;;7.80;99.90;;;;;;5108311;28;20043;-79
2022/04/03 10:33:20;;;;;;;3.65;0.80;;;7.90;99.90;;;;;;5094999;28;20093;-77
2022/04/03 10:35:48;;;;;;;4.25;0.88;;;7.80;99.90;;;;;;5111527;28;20343;-77
2022/04/03 10:38:14;;;;;;;4.63;0.90;;;8.30;99.90;;;;;;5111349;28;20039;-77
2022/04/03 10:40:55;;;;;;;2.28;0.77;;;8.90;99.90;;;;;;5093912;28;20047;-76
2022/04/03 10:43:28;;;;;;;3.40;0.80;;;8.60;99.90;;;;;;5109795;28;20400;-75
2022/04/03 10:45:53;;;;;;;2.42;0.73;;;8.40;99.90;;;;;;5091482;28;20040;-79
2022/04/03 10:48:25;;;;;;;3.60;0.90;;;8.40;99.90;;;;;;5110769;28;20054;-80
2022/04/03 10:51:01;;;;;;;4.40;1.02;;;8.10;99.90;;;;;;5109047;28;20046;-78
2022/04/03 10:53:32;;;;;;;4.68;1.00;;;8.10;99.90;;;;;;5109706;28;20043;-79
2022/04/03 10:56:07;;;;;;;6.95;1.08;;;7.70;99.90;;;;;;5110465;28;20051;-78
2022/04/03 10:58:40;;;;;;;;;;;7.10;99.90;;;;;;5093698;28;20500;-77
2022/04/03 11:01:10;;;;;;;7.85;1.52;;;6.80;99.90;;;;;;5110268;28;19958;-77
2022/04/03 11:03:37;;;;;;;7.80;1.20;;;6.70;99.90;;;;;;5110773;28;20036;-79
2022/04/03 11:06:27;;;;;;;4.15;1.00;;;6.70;99.90;;;;;;5093682;28;20351;-76
2022/04/03 11:09:00;;;;;;;6.15;1.52;;;6.70;99.90;;;;;;5108283;27;20043;-77
2022/04/03 11:11:44;;;;;;;5.45;1.27;;;6.70;99.90;;;;;;5109148;28;20059;-76
2022/04/03 11:14:12;;;;;;;4.75;1.27;;;6.70;99.90;;;;;;5091658;28;20047;-73
2022/04/03 11:16:55;;;;;;;5.88;1.08;;;7.30;99.90;;;;;;5090167;28;20039;-80
2022/04/03 11:19:41;;;;;;;5.22;1.35;;;7.00;99.90;;;;;;5088376;27;20398;-80
2022/04/03 11:22:09;;;;;;;4.15;1.35;;;7.10;99.90;;;;;;5106406;28;20340;-76
2022/04/03 11:24:37;;;;;;;5.18;1.00;;;7.20;99.90;;;;;;5105061;27;20036;-76
2022/04/03 11:27:07;;;;;;;5.32;1.13;;;7.20;99.90;;;;;;5089110;28;20044;-76
2022/04/03 11:29:33;;;;;;;3.90;1.05;;;7.20;99.90;;;;;;5106120;28;20023;-77
2022/04/03 11:32:03;;;;;;;5.18;1.10;;;7.00;99.90;;;;;;5089525;28;20104;-74
2022/04/03 11:34:33;;;;;;;4.80;0.90;;;7.00;99.90;;;;;;5107291;28;20051;-75
2022/04/03 11:37:01;;;;;;;2.33;0.75;;;7.10;99.90;;;;;;5106279;27;20112;-78
2022/04/03 11:39:32;;;;;;;2.20;0.75;;;7.50;99.90;;;;;;5108832;28;20055;-78
2022/04/03 11:42:02;;;;;;;4.50;0.70;;;8.10;99.90;;;;;;5086715;28;20043;-77
2022/04/03 11:44:29;;;;;;;1.92;0.70;;;8.30;99.90;;;;;;5104966;28;20071;-76
2022/04/03 11:46:55;;;;;;;2.80;0.90;;;8.00;99.90;;;;;;5089358;28;20034;-75
2022/04/03 11:49:25;;;;;;;2.05;0.60;;;7.90;99.90;;;;;;5106411;28;20044;-79
2022/04/03 11:52:05;;;;;;;1.98;0.50;;;7.90;99.90;;;;;;5102928;28;20047;-77
2022/04/03 11:54:31;;;;;;;1.55;0.30;;;7.80;99.90;;;;;;5105796;27;20629;-79
2022/04/03 11:57:01;;;;;;;2.30;0.40;;;7.60;99.90;;;;;;5108300;28;20042;-77
2022/04/03 11:59:27;;;;;;;1.60;0.50;;;7.40;99.90;;;;;;5109616;27;20085;-79
2022/04/03 12:01:53;;;;;;;1.20;0.50;;;7.30;99.90;;;;;;5095114;27;20045;-76
2022/04/03 12:04:21;;;;;;;4.63;0.45;;;7.20;99.90;;;;;;5107756;27;20130;-76
2022/04/03 12:06:50;;;;;;;0.88;0.40;;;7.40;99.90;;;;;;5110918;27;20049;-77
2022/04/03 12:09:24;;;;;;;0.75;0.40;;;7.70;99.90;;;;;;5106442;27;20046;-76
2022/04/03 12:11:53;;;;;;;1.37;0.53;;;8.20;99.90;;;;;;5106531;27;20039;-75
2022/04/03 12:14:26;;;;;;;2.83;0.57;;;8.70;99.90;;;;;;5107582;27;20039;-78
2022/04/03 12:17:00;;;;;;;1.10;0.43;;;8.90;99.90;;;;;;5091636;28;20182;-78
2022/04/03 12:19:33;;;;;;;3.40;0.60;;;9.40;99.90;;;;;;5111063;28;20382;-77
2022/04/03 12:22:02;;;;;;;3.40;0.50;;;9.50;99.90;;;;;;5101846;27;20334;-76
2022/04/03 12:24:30;;;;;;;3.45;0.50;;;9.90;99.90;;;;;;5106238;27;20036;-82
2022/04/03 12:27:05;;;;;;;2.50;0.52;;;10.30;99.90;;;;;;5102150;28;20127;-76
2022/04/03 12:29:32;;;;;;;5.07;0.68;;;10.40;99.90;;;;;;5108956;27;20039;-78
2022/04/03 12:32:08;;;;;;;2.92;0.60;;;10.60;99.90;;;;;;5104533;27;20032;-77
2022/04/03 12:34:36;;;;;;;2.60;0.57;;;10.30;99.90;;;;;;5105083;28;20115;-77
2022/04/03 12:37:04;;;;;;;3.83;0.70;;;10.00;99.90;;;;;;5103423;28;20058;-79
2022/04/03 12:39:43;;;;;;;3.15;0.88;;;9.50;99.90;;;;;;5079799;28;20096;-79
2022/04/03 12:42:31;;;;;;;3.55;0.90;;;8.90;99.90;;;;;;5104406;28;20157;-73
2022/04/03 12:45:05;;;;;;;2.90;0.90;;;8.60;99.90;;;;;;5085575;28;20059;-77
2022/04/03 12:47:31;;;;;;;3.28;0.70;;;8.30;99.90;;;;;;5110202;27;20067;-79
2022/04/03 12:50:06;;;;;;;2.90;0.85;;;8.70;99.90;;;;;;5101824;28;20632;-79
2022/04/03 12:52:45;;;;;;;3.95;1.00;;;8.90;99.90;;;;;;5101261;28;20054;-78
2022/04/03 12:55:32;;;;;;;2.55;0.65;;;8.80;99.90;;;;;;5094477;28;20317;-73
2022/04/03 13:00:48;;;;;;;4.43;1.17;;;8.40;99.90;;;;;;5097739;28;20054;-75
2022/04/03 13:03:30;;;;;;;3.25;0.82;;;8.40;99.90;;;;;;5097354;28;20406;-80
2022/04/03 13:05:59;;;;;;;2.55;1.02;;;8.10;99.90;;;;;;5094239;28;20051;-75
2022/04/03 13:08:26;;;;;;;3.03;0.90;;;8.40;99.90;;;;;;5099265;28;20829;-79
2022/04/03 13:10:54;;;;;;;5.95;0.80;;;9.10;99.90;;;;;;5099115;28;20046;-78
2022/04/03 13:13:25;;;;;;;1.95;0.80;;;9.10;99.90;;;;;;5102400;28;20039;-79
2022/04/03 13:15:51;;;;;;;3.25;0.77;;;9.70;99.90;;;;;;5091176;28;20047;-74
2022/04/03 13:18:17;;;;;;;4.95;0.82;;;10.30;99.90;;;;;;5105468;28;20056;-78
2022/04/03 13:20:51;;;;;;;3.95;0.85;;;10.30;99.90;;;;;;5101889;27;20115;-79
2022/04/03 13:23:18;;;;;;;5.85;1.00;;;10.20;99.90;;;;;;5102156;28;20052;-80